Time,TemperatureF,DewpointF,PressureIn,WindDirection,WindDirectionDegrees,WindSpeedMPH,WindSpeedGustMPH,Humidity,HourlyPrecipIn,Conditions,Clouds,dailyrainin,SoftwareType,DateUTC
2013-10-16 05:05:00,56.8,52.0,29.65,North,-999,0.0,0.0,84,0.00,,,-99.99,FreeWX 2.04,2013-10-16 09:05:00,
2013-10-16 18:38:00,54.5,37.2,29.65,West,277,2.0,4.9,52,0.00,,,-99.99,FreeWX 2.04,2013-10-16 22:38:00,
2013-10-16 18:43:00,54.5,37.8,29.65,WNW,290,2.0,5.4,53,0.00,,,-99.99,FreeWX 2.04,2013-10-16 22:43:00,
2013-10-16 18:48:00,54.1,37.4,29.65,WNW,292,1.0,5.8,53,0.00,,,-99.99,FreeWX 2.04,2013-10-16 22:48:00,
2013-10-16 18:53:00,54.1,37.4,29.65,West,274,1.0,3.6,53,0.00,,,-99.99,FreeWX 2.04,2013-10-16 22:53:00,
2013-10-16 18:58:00,54.0,37.8,29.68,North,-999,0.0,4.0,54,0.00,,,-99.99,FreeWX 2.04,2013-10-16 22:58:00,
2013-10-16 19:03:00,53.8,37.6,29.68,WNW,294,1.0,5.8,54,0.00,,,-99.99,FreeWX 2.04,2013-10-16 23:03:00,
2013-10-16 19:08:00,53.8,37.9,29.68,WNW,286,1.0,4.9,55,0.00,,,-99.99,FreeWX 2.04,2013-10-16 23:08:00,
2013-10-16 19:13:00,53.6,37.8,29.68,WNW,295,1.0,4.9,55,0.00,,,-99.99,FreeWX 2.04,2013-10-16 23:13:00,
2013-10-16 19:18:00,53.4,38.1,29.68,WNW,301,1.0,4.5,56,0.00,,,-99.99,FreeWX 2.04,2013-10-16 23:18:00,
2013-10-16 19:23:00,53.2,37.9,29.68,WNW,288,1.0,0.0,56,0.00,,,-99.99,FreeWX 2.04,2013-10-16 23:23:00,
2013-10-16 19:28:00,53.2,37.9,29.68,North,-999,0.0,4.5,56,0.00,,,-99.99,FreeWX 2.04,2013-10-16 23:28:00,
2013-10-16 19:33:00,53.1,37.8,29.68,North,-999,0.0,0.0,56,0.00,,,-99.99,FreeWX 2.04,2013-10-16 23:33:00,
2013-10-16 19:38:00,52.9,37.6,29.68,North,-999,0.0,3.6,56,0.00,,,-99.99,FreeWX 2.04,2013-10-16 23:38:00,
2013-10-16 19:43:00,52.7,37.9,29.68,North,-999,0.0,0.0,57,0.00,,,-99.99,FreeWX 2.04,2013-10-16 23:43:00,
2013-10-16 19:48:00,52.7,37.9,29.68,North,-999,0.0,0.0,57,0.00,,,-99.99,FreeWX 2.04,2013-10-16 23:48:00,
2013-10-16 19:53:00,52.7,38.3,29.68,North,-999,0.0,0.0,58,0.00,,,-99.99,FreeWX 2.04,2013-10-16 23:53:00,
2013-10-16 19:58:00,52.5,38.1,29.71,North,-999,0.0,0.0,58,0.00,,,-99.99,FreeWX 2.04,2013-10-16 23:58:00,
2013-10-16 20:03:00,52.5,38.1,29.71,North,-999,0.0,0.0,58,0.00,,,-99.99,FreeWX 2.04,2013-10-17 00:03:00,
2013-10-16 20:08:00,52.5,38.1,29.71,North,-999,0.0,3.6,58,0.00,,,-99.99,FreeWX 2.04,2013-10-17 00:08:00,
2013-10-16 20:13:00,52.5,38.7,29.71,North,-999,0.0,0.0,59,0.00,,,-99.99,FreeWX 2.04,2013-10-17 00:13:00,
2013-10-16 20:18:00,52.3,38.5,29.71,North,-999,0.0,4.0,59,0.00,,,-99.99,FreeWX 2.04,2013-10-17 00:18:00,
2013-10-16 20:23:00,52.3,38.8,29.71,WSW,244,1.0,4.5,60,0.00,,,-99.99,FreeWX 2.04,2013-10-17 00:23:00,
2013-10-16 20:28:00,52.3,38.8,29.71,North,-999,0.0,2.7,60,0.00,,,-99.99,FreeWX 2.04,2013-10-17 00:28:00,
2013-10-16 20:33:00,52.2,38.7,29.71,North,-999,0.0,4.0,60,0.00,,,-99.99,FreeWX 2.04,2013-10-17 00:33:00,
2013-10-16 20:38:00,52.2,38.7,29.71,North,-999,0.0,4.0,60,0.00,,,-99.99,FreeWX 2.04,2013-10-17 00:38:00,
2013-10-16 20:43:00,52.2,39.2,29.71,North,-999,0.0,4.0,61,0.00,,,-99.99,FreeWX 2.04,2013-10-17 00:43:00,
2013-10-16 20:48:00,52.2,39.2,29.71,North,-999,0.0,3.6,61,0.00,,,-99.99,FreeWX 2.04,2013-10-17 00:48:00,
2013-10-16 20:53:00,52.2,39.2,29.71,North,-999,0.0,0.0,61,0.00,,,-99.99,FreeWX 2.04,2013-10-17 00:53:00,
2013-10-16 20:58:00,52.2,39.2,29.71,North,-999,0.0,0.0,61,0.00,,,-99.99,FreeWX 2.04,2013-10-17 00:58:00,
2013-10-16 21:03:00,52.2,39.2,29.71,North,-999,0.0,0.0,61,0.00,,,-99.99,FreeWX 2.04,2013-10-17 01:03:00,
2013-10-16 21:08:00,52.2,39.6,29.71,North,-999,0.0,0.0,62,0.00,,,-99.99,FreeWX 2.04,2013-10-17 01:08:00,
2013-10-16 21:13:00,52.2,39.6,29.71,North,-999,0.0,4.9,62,0.00,,,-99.99,FreeWX 2.04,2013-10-17 01:13:00,
2013-10-16 21:18:00,52.0,39.4,29.71,WNW,286,2.0,6.7,62,0.00,,,-99.99,FreeWX 2.04,2013-10-17 01:18:00,
2013-10-16 21:23:00,51.8,38.8,29.71,WNW,285,2.0,4.5,61,0.00,,,-99.99,FreeWX 2.04,2013-10-17 01:23:00,
2013-10-16 21:28:00,51.6,38.7,29.74,WNW,290,2.0,6.9,61,0.00,,,-99.99,FreeWX 2.04,2013-10-17 01:28:00,
2013-10-16 21:33:00,51.6,38.7,29.74,NW,307,2.0,6.3,61,0.00,,,-99.99,FreeWX 2.04,2013-10-17 01:33:00,
2013-10-16 21:38:00,51.6,38.1,29.74,WNW,289,2.0,5.4,60,0.00,,,-99.99,FreeWX 2.04,2013-10-17 01:38:00,
2013-10-16 21:43:00,51.6,37.8,29.74,WSW,254,2.0,5.4,59,0.00,,,-99.99,FreeWX 2.04,2013-10-17 01:43:00,
2013-10-16 21:48:00,51.6,37.8,29.74,WSW,248,1.0,4.5,59,0.00,,,-99.99,FreeWX 2.04,2013-10-17 01:48:00,
2013-10-16 21:53:00,51.4,37.2,29.74,North,-999,0.0,0.0,58,0.00,,,-99.99,FreeWX 2.04,2013-10-17 01:53:00,
2013-10-16 21:58:00,51.4,37.2,29.74,North,-999,0.0,0.0,58,0.00,,,-99.99,FreeWX 2.04,2013-10-17 01:58:00,
2013-10-16 22:03:00,51.4,37.2,29.74,North,-999,0.0,4.5,58,0.00,,,-99.99,FreeWX 2.04,2013-10-17 02:03:00,
2013-10-16 22:08:00,51.4,37.2,29.74,North,-999,0.0,4.0,58,0.00,,,-99.99,FreeWX 2.04,2013-10-17 02:08:00,